sensor_id;sensor_type;location;lat;lon;timestamp;temperature;humidity
13462;DHT22;6803;45.264;5.468;2023-01-25T00:00:46;1.60;99.90
13462;DHT22;6803;45.264;5.468;2023-01-25T00:03:17;1.60;99.90
13462;DHT22;6803;45.264;5.468;2023-01-25T00:05:48;1.60;99.90
13462;DHT22;6803;45.264;5.468;2023-01-25T00:08:20;1.70;99.90
13462;DHT22;6803;45.264;5.468;2023-01-25T00:10:52;1.70;99.90
13462;DHT22;6803;45.264;5.468;2023-01-25T00:13:24;1.70;99.90
13462;DHT22;6803;45.264;5.468;2023-01-25T00:16:01;1.70;99.90
13462;DHT22;6803;45.264;5.468;2023-01-25T00:18:32;1.70;99.90
13462;DHT22;6803;45.264;5.468;2023-01-25T00:21:12;1.70;99.90
13462;DHT22;6803;45.264;5.468;2023-01-25T00:23:43;1.70;99.90
13462;DHT22;6803;45.264;5.468;2023-01-25T00:26:15;1.60;99.90
13462;DHT22;6803;45.264;5.468;2023-01-25T00:28:49;1.70;99.90
13462;DHT22;6803;45.264;5.468;2023-01-25T00:34:19;1.70;99.90
13462;DHT22;6803;45.264;5.468;2023-01-25T00:36:51;1.70;99.90
13462;DHT22;6803;45.264;5.468;2023-01-25T00:39:23;1.70;99.90
13462;DHT22;6803;45.264;5.468;2023-01-25T00:41:55;1.80;99.90
13462;DHT22;6803;45.264;5.468;2023-01-25T00:44:25;1.80;99.90
13462;DHT22;6803;45.264;5.468;2023-01-25T00:46:56;1.80;99.90
13462;DHT22;6803;45.264;5.468;2023-01-25T00:49:27;1.80;99.90
13462;DHT22;6803;45.264;5.468;2023-01-25T00:52:00;1.70;99.90
13462;DHT22;6803;45.264;5.468;2023-01-25T00:54:31;1.70;99.90
13462;DHT22;6803;45.264;5.468;2023-01-25T00:57:02;1.80;99.90
13462;DHT22;6803;45.264;5.468;2023-01-25T00:59:33;1.80;99.90
13462;DHT22;6803;45.264;5.468;2023-01-25T01:02:04;1.80;99.90
13462;DHT22;6803;45.264;5.468;2023-01-25T01:04:35;1.80;99.90
13462;DHT22;6803;45.264;5.468;2023-01-25T01:07:06;1.80;99.90
13462;DHT22;6803;45.264;5.468;2023-01-25T01:09:37;1.80;99.90
13462;DHT22;6803;45.264;5.468;2023-01-25T01:12:07;1.90;99.90
13462;DHT22;6803;45.264;5.468;2023-01-25T01:14:38;1.90;99.90
13462;DHT22;6803;45.264;5.468;2023-01-25T01:17:09;1.80;99.90
13462;DHT22;6803;45.264;5.468;2023-01-25T01:19:40;1.90;99.90
13462;DHT22;6803;45.264;5.468;2023-01-25T01:22:11;1.80;99.90
13462;DHT22;6803;45.264;5.468;2023-01-25T01:24:41;1.90;99.90
13462;DHT22;6803;45.264;5.468;2023-01-25T01:27:12;1.80;99.90
13462;DHT22;6803;45.264;5.468;2023-01-25T01:29:43;1.70;99.90
13462;DHT22;6803;45.264;5.468;2023-01-25T01:32:14;1.70;99.90
13462;DHT22;6803;45.264;5.468;2023-01-25T01:34:45;1.80;99.90
13462;DHT22;6803;45.264;5.468;2023-01-25T01:37:15;1.80;99.90
13462;DHT22;6803;45.264;5.468;2023-01-25T01:39:46;1.70;99.90
13462;DHT22;6803;45.264;5.468;2023-01-25T01:42:17;1.80;99.90
13462;DHT22;6803;45.264;5.468;2023-01-25T01:44:50;1.70;99.90
13462;DHT22;6803;45.264;5.468;2023-01-25T01:47:23;1.80;99.90
13462;DHT22;6803;45.264;5.468;2023-01-25T01:49:57;1.80;99.90
13462;DHT22;6803;45.264;5.468;2023-01-25T01:52:31;1.80;99.90
13462;DHT22;6803;45.264;5.468;2023-01-25T01:55:05;1.80;99.90
13462;DHT22;6803;45.264;5.468;2023-01-25T01:57:40;1.70;99.90
13462;DHT22;6803;45.264;5.468;2023-01-25T02:00:15;1.80;99.90
13462;DHT22;6803;45.264;5.468;2023-01-25T02:02:49;1.70;99.90
13462;DHT22;6803;45.264;5.468;2023-01-25T02:05:24;1.80;99.90
13462;DHT22;6803;45.264;5.468;2023-01-25T02:07:55;1.70;99.90
13462;DHT22;6803;45.264;5.468;2023-01-25T02:10:27;1.70;99.90
13462;DHT22;6803;45.264;5.468;2023-01-25T02:12:58;1.70;99.90
13462;DHT22;6803;45.264;5.468;2023-01-25T02:15:32;1.70;99.90
13462;DHT22;6803;45.264;5.468;2023-01-25T02:18:04;1.80;99.90
13462;DHT22;6803;45.264;5.468;2023-01-25T02:20:38;1.70;99.90
13462;DHT22;6803;45.264;5.468;2023-01-25T02:23:14;1.70;99.90
13462;DHT22;6803;45.264;5.468;2023-01-25T02:25:46;1.70;99.90
13462;DHT22;6803;45.264;5.468;2023-01-25T02:28:18;1.70;99.90
13462;DHT22;6803;45.264;5.468;2023-01-25T02:30:50;1.70;99.90
13462;DHT22;6803;45.264;5.468;2023-01-25T02:33:24;1.70;99.90
13462;DHT22;6803;45.264;5.468;2023-01-25T02:35:58;1.70;99.90
13462;DHT22;6803;45.264;5.468;2023-01-25T02:38:30;1.80;99.90
13462;DHT22;6803;45.264;5.468;2023-01-25T02:41:06;1.80;99.90
13462;DHT22;6803;45.264;5.468;2023-01-25T02:43:37;1.70;99.90
13462;DHT22;6803;45.264;5.468;2023-01-25T02:46:11;1.70;99.90
13462;DHT22;6803;45.264;5.468;2023-01-25T02:48:42;1.70;99.90
13462;DHT22;6803;45.264;5.468;2023-01-25T02:51:13;1.70;99.90
13462;DHT22;6803;45.264;5.468;2023-01-25T02:53:44;1.70;99.90
13462;DHT22;6803;45.264;5.468;2023-01-25T02:56:15;1.70;99.90
13462;DHT22;6803;45.264;5.468;2023-01-25T02:58:46;1.70;99.90
13462;DHT22;6803;45.264;5.468;2023-01-25T03:01:17;1.70;99.90
13462;DHT22;6803;45.264;5.468;2023-01-25T03:03:48;1.80;99.90
13462;DHT22;6803;45.264;5.468;2023-01-25T03:06:19;1.70;99.90
13462;DHT22;6803;45.264;5.468;2023-01-25T03:08:50;1.70;99.90
13462;DHT22;6803;45.264;5.468;2023-01-25T03:11:20;1.70;99.90
13462;DHT22;6803;45.264;5.468;2023-01-25T03:13:51;1.70;99.90
13462;DHT22;6803;45.264;5.468;2023-01-25T03:16:22;1.80;99.90
13462;DHT22;6803;45.264;5.468;2023-01-25T03:18:54;1.70;99.90
13462;DHT22;6803;45.264;5.468;2023-01-25T03:21:25;1.70;99.90
13462;DHT22;6803;45.264;5.468;2023-01-25T03:23:57;1.70;99.90
13462;DHT22;6803;45.264;5.468;2023-01-25T03:26:29;1.70;99.90
13462;DHT22;6803;45.264;5.468;2023-01-25T03:29:02;1.70;99.90
13462;DHT22;6803;45.264;5.468;2023-01-25T03:31:32;1.70;99.90
13462;DHT22;6803;45.264;5.468;2023-01-25T03:34:03;1.70;99.90
13462;DHT22;6803;45.264;5.468;2023-01-25T03:36:34;1.70;99.90
13462;DHT22;6803;45.264;5.468;2023-01-25T03:39:05;1.70;99.90
13462;DHT22;6803;45.264;5.468;2023-01-25T03:41:35;1.60;99.90
13462;DHT22;6803;45.264;5.468;2023-01-25T03:44:07;1.60;99.90
13462;DHT22;6803;45.264;5.468;2023-01-25T03:46:40;1.60;99.90
13462;DHT22;6803;45.264;5.468;2023-01-25T03:49:11;1.60;99.90
13462;DHT22;6803;45.264;5.468;2023-01-25T03:51:42;1.60;99.90
13462;DHT22;6803;45.264;5.468;2023-01-25T03:54:12;1.60;99.90
13462;DHT22;6803;45.264;5.468;2023-01-25T03:56:43;1.60;99.90
13462;DHT22;6803;45.264;5.468;2023-01-25T03:59:14;1.60;99.90
13462;DHT22;6803;45.264;5.468;2023-01-25T04:01:45;1.50;99.90
13462;DHT22;6803;45.264;5.468;2023-01-25T04:04:16;1.60;99.90
13462;DHT22;6803;45.264;5.468;2023-01-25T04:06:47;1.60;99.90
13462;DHT22;6803;45.264;5.468;2023-01-25T04:09:18;1.50;99.90
13462;DHT22;6803;45.264;5.468;2023-01-25T04:11:50;1.60;99.90
13462;DHT22;6803;45.264;5.468;2023-01-25T04:14:21;1.50;99.90
13462;DHT22;6803;45.264;5.468;2023-01-25T04:16:53;1.50;99.90
13462;DHT22;6803;45.264;5.468;2023-01-25T04:19:24;1.60;99.90
13462;DHT22;6803;45.264;5.468;2023-01-25T04:21:55;1.60;99.90
13462;DHT22;6803;45.264;5.468;2023-01-25T04:24:25;1.60;99.90
13462;DHT22;6803;45.264;5.468;2023-01-25T04:26:56;1.60;99.90
13462;DHT22;6803;45.264;5.468;2023-01-25T04:29:27;1.50;99.90
13462;DHT22;6803;45.264;5.468;2023-01-25T04:31:59;1.60;99.90
13462;DHT22;6803;45.264;5.468;2023-01-25T04:34:32;1.60;99.90
13462;DHT22;6803;45.264;5.468;2023-01-25T04:37:02;1.50;99.90
13462;DHT22;6803;45.264;5.468;2023-01-25T04:39:33;1.50;99.90
13462;DHT22;6803;45.264;5.468;2023-01-25T04:42:04;1.50;99.90
13462;DHT22;6803;45.264;5.468;2023-01-25T04:44:35;1.50;99.90
13462;DHT22;6803;45.264;5.468;2023-01-25T04:47:06;1.50;99.90
13462;DHT22;6803;45.264;5.468;2023-01-25T04:49:36;1.50;99.90
13462;DHT22;6803;45.264;5.468;2023-01-25T04:52:08;1.60;99.90
13462;DHT22;6803;45.264;5.468;2023-01-25T04:54:39;1.60;99.90
13462;DHT22;6803;45.264;5.468;2023-01-25T04:57:10;1.60;99.90
13462;DHT22;6803;45.264;5.468;2023-01-25T04:59:41;1.60;99.90
13462;DHT22;6803;45.264;5.468;2023-01-25T05:02:12;1.60;99.90
13462;DHT22;6803;45.264;5.468;2023-01-25T05:04:43;1.60;99.90
13462;DHT22;6803;45.264;5.468;2023-01-25T05:07:14;1.60;99.90
13462;DHT22;6803;45.264;5.468;2023-01-25T05:09:44;1.60;99.90
13462;DHT22;6803;45.264;5.468;2023-01-25T05:12:15;1.60;99.90
13462;DHT22;6803;45.264;5.468;2023-01-25T05:14:46;1.60;99.90
13462;DHT22;6803;45.264;5.468;2023-01-25T05:17:17;1.60;99.90
13462;DHT22;6803;45.264;5.468;2023-01-25T05:19:47;1.60;99.90
13462;DHT22;6803;45.264;5.468;2023-01-25T05:22:19;1.60;99.90
13462;DHT22;6803;45.264;5.468;2023-01-25T05:24:50;1.60;99.90
13462;DHT22;6803;45.264;5.468;2023-01-25T05:27:21;1.70;99.90
13462;DHT22;6803;45.264;5.468;2023-01-25T05:29:51;1.70;99.90
13462;DHT22;6803;45.264;5.468;2023-01-25T05:32:24;1.70;99.90
13462;DHT22;6803;45.264;5.468;2023-01-25T05:34:54;1.60;99.90
13462;DHT22;6803;45.264;5.468;2023-01-25T05:37:27;1.70;99.90
13462;DHT22;6803;45.264;5.468;2023-01-25T05:39:58;1.60;99.90
13462;DHT22;6803;45.264;5.468;2023-01-25T05:42:29;1.60;99.90
13462;DHT22;6803;45.264;5.468;2023-01-25T05:45:00;1.60;99.90
13462;DHT22;6803;45.264;5.468;2023-01-25T05:47:31;1.60;99.90
13462;DHT22;6803;45.264;5.468;2023-01-25T05:50:02;1.60;99.90
13462;DHT22;6803;45.264;5.468;2023-01-25T05:52:34;1.60;99.90
13462;DHT22;6803;45.264;5.468;2023-01-25T05:55:07;1.60;99.90
13462;DHT22;6803;45.264;5.468;2023-01-25T05:57:39;1.50;99.90
13462;DHT22;6803;45.264;5.468;2023-01-25T06:00:12;1.60;99.90
13462;DHT22;6803;45.264;5.468;2023-01-25T06:02:43;1.60;99.90
13462;DHT22;6803;45.264;5.468;2023-01-25T06:05:15;1.50;99.90
13462;DHT22;6803;45.264;5.468;2023-01-25T06:07:45;1.50;99.90
13462;DHT22;6803;45.264;5.468;2023-01-25T06:10:17;1.50;99.90
13462;DHT22;6803;45.264;5.468;2023-01-25T06:12:47;1.50;99.90
13462;DHT22;6803;45.264;5.468;2023-01-25T06:15:18;1.50;99.90
13462;DHT22;6803;45.264;5.468;2023-01-25T06:17:49;1.50;99.90
13462;DHT22;6803;45.264;5.468;2023-01-25T06:20:21;1.50;99.90
13462;DHT22;6803;45.264;5.468;2023-01-25T06:22:52;1.50;99.90
13462;DHT22;6803;45.264;5.468;2023-01-25T06:25:23;1.50;99.90
13462;DHT22;6803;45.264;5.468;2023-01-25T06:27:55;1.50;99.90
13462;DHT22;6803;45.264;5.468;2023-01-25T06:30:26;1.50;99.90
13462;DHT22;6803;45.264;5.468;2023-01-25T06:32:58;1.40;99.90
13462;DHT22;6803;45.264;5.468;2023-01-25T06:35:31;1.40;99.90
13462;DHT22;6803;45.264;5.468;2023-01-25T06:38:03;1.40;99.90
13462;DHT22;6803;45.264;5.468;2023-01-25T06:40:34;1.50;99.90
13462;DHT22;6803;45.264;5.468;2023-01-25T06:43:08;1.40;99.90
13462;DHT22;6803;45.264;5.468;2023-01-25T06:45:39;1.40;99.90
13462;DHT22;6803;45.264;5.468;2023-01-25T06:48:10;1.40;99.90
13462;DHT22;6803;45.264;5.468;2023-01-25T06:50:41;1.40;99.90
13462;DHT22;6803;45.264;5.468;2023-01-25T06:53:12;1.40;99.90
13462;DHT22;6803;45.264;5.468;2023-01-25T06:55:43;1.50;99.90
13462;DHT22;6803;45.264;5.468;2023-01-25T06:58:14;1.50;99.90
13462;DHT22;6803;45.264;5.468;2023-01-25T07:00:44;1.40;99.90
13462;DHT22;6803;45.264;5.468;2023-01-25T07:03:15;1.30;99.90
13462;DHT22;6803;45.264;5.468;2023-01-25T07:05:46;1.40;99.90
13462;DHT22;6803;45.264;5.468;2023-01-25T07:11:03;1.40;99.90
13462;DHT22;6803;45.264;5.468;2023-01-25T07:13:34;1.40;99.90
13462;DHT22;6803;45.264;5.468;2023-01-25T07:16:09;1.40;99.90
13462;DHT22;6803;45.264;5.468;2023-01-25T07:18:40;1.40;99.90
13462;DHT22;6803;45.264;5.468;2023-01-25T07:21:13;1.40;99.90
13462;DHT22;6803;45.264;5.468;2023-01-25T07:23:44;1.40;99.90
13462;DHT22;6803;45.264;5.468;2023-01-25T07:26:19;1.40;99.90
13462;DHT22;6803;45.264;5.468;2023-01-25T07:28:49;1.30;99.90
13462;DHT22;6803;45.264;5.468;2023-01-25T07:31:21;1.40;99.90
13462;DHT22;6803;45.264;5.468;2023-01-25T07:33:53;1.50;99.90
13462;DHT22;6803;45.264;5.468;2023-01-25T07:36:24;1.50;99.90
13462;DHT22;6803;45.264;5.468;2023-01-25T07:38:56;1.50;99.90
13462;DHT22;6803;45.264;5.468;2023-01-25T07:41:28;1.60;99.90
13462;DHT22;6803;45.264;5.468;2023-01-25T07:43:58;1.50;99.90
13462;DHT22;6803;45.264;5.468;2023-01-25T07:46:30;1.50;99.90
13462;DHT22;6803;45.264;5.468;2023-01-25T07:49:00;1.50;99.90
13462;DHT22;6803;45.264;5.468;2023-01-25T07:51:31;1.50;99.90
13462;DHT22;6803;45.264;5.468;2023-01-25T07:54:03;1.60;99.90
13462;DHT22;6803;45.264;5.468;2023-01-25T07:56:35;1.60;99.90
13462;DHT22;6803;45.264;5.468;2023-01-25T07:59:10;1.60;99.90
13462;DHT22;6803;45.264;5.468;2023-01-25T08:01:41;1.60;99.90
13462;DHT22;6803;45.264;5.468;2023-01-25T08:04:11;1.60;99.90
13462;DHT22;6803;45.264;5.468;2023-01-25T08:06:42;1.60;99.90
13462;DHT22;6803;45.264;5.468;2023-01-25T08:09:16;1.60;99.90
13462;DHT22;6803;45.264;5.468;2023-01-25T08:11:48;1.70;99.90
13462;DHT22;6803;45.264;5.468;2023-01-25T08:14:21;1.70;99.90
13462;DHT22;6803;45.264;5.468;2023-01-25T08:16:53;1.70;99.90
13462;DHT22;6803;45.264;5.468;2023-01-25T08:19:23;1.70;99.90
13462;DHT22;6803;45.264;5.468;2023-01-25T08:21:56;1.60;99.90
13462;DHT22;6803;45.264;5.468;2023-01-25T08:24:27;1.60;99.90
13462;DHT22;6803;45.264;5.468;2023-01-25T08:26:57;1.70;99.90
13462;DHT22;6803;45.264;5.468;2023-01-25T08:29:28;1.50;99.90
13462;DHT22;6803;45.264;5.468;2023-01-25T08:31:59;1.70;99.90
13462;DHT22;6803;45.264;5.468;2023-01-25T08:34:32;1.70;99.90
13462;DHT22;6803;45.264;5.468;2023-01-25T08:37:04;1.60;99.90
13462;DHT22;6803;45.264;5.468;2023-01-25T08:39:36;1.60;99.90
13462;DHT22;6803;45.264;5.468;2023-01-25T08:42:07;1.60;99.90
13462;DHT22;6803;45.264;5.468;2023-01-25T08:44:38;1.60;99.90
13462;DHT22;6803;45.264;5.468;2023-01-25T08:47:08;1.70;99.90
13462;DHT22;6803;45.264;5.468;2023-01-25T08:49:39;1.60;99.90
13462;DHT22;6803;45.264;5.468;2023-01-25T08:52:10;1.60;99.90
13462;DHT22;6803;45.264;5.468;2023-01-25T08:54:43;1.70;99.90
13462;DHT22;6803;45.264;5.468;2023-01-25T08:57:14;1.70;99.90
13462;DHT22;6803;45.264;5.468;2023-01-25T08:59:44;1.70;99.90
13462;DHT22;6803;45.264;5.468;2023-01-25T09:02:16;1.70;99.90
13462;DHT22;6803;45.264;5.468;2023-01-25T09:04:47;1.60;99.90
13462;DHT22;6803;45.264;5.468;2023-01-25T09:07:18;1.70;99.90
13462;DHT22;6803;45.264;5.468;2023-01-25T09:09:49;1.70;99.90
13462;DHT22;6803;45.264;5.468;2023-01-25T09:12:20;1.70;99.90
13462;DHT22;6803;45.264;5.468;2023-01-25T09:14:51;1.70;99.90
13462;DHT22;6803;45.264;5.468;2023-01-25T09:17:21;1.70;99.90
13462;DHT22;6803;45.264;5.468;2023-01-25T09:19:52;1.80;99.90
13462;DHT22;6803;45.264;5.468;2023-01-25T09:22:23;1.80;99.90
13462;DHT22;6803;45.264;5.468;2023-01-25T09:24:54;1.80;99.90
13462;DHT22;6803;45.264;5.468;2023-01-25T09:27:25;1.90;99.90
13462;DHT22;6803;45.264;5.468;2023-01-25T09:29:55;1.90;99.90
13462;DHT22;6803;45.264;5.468;2023-01-25T09:32:28;1.90;99.90
13462;DHT22;6803;45.264;5.468;2023-01-25T09:34:59;1.90;99.90
13462;DHT22;6803;45.264;5.468;2023-01-25T09:37:29;1.90;99.90
13462;DHT22;6803;45.264;5.468;2023-01-25T09:40:00;1.90;99.90
13462;DHT22;6803;45.264;5.468;2023-01-25T09:42:49;1.90;99.90
13462;DHT22;6803;45.264;5.468;2023-01-25T09:45:27;2.00;99.90
13462;DHT22;6803;45.264;5.468;2023-01-25T09:48:08;2.00;99.90
13462;DHT22;6803;45.264;5.468;2023-01-25T09:50:47;2.10;99.90
13462;DHT22;6803;45.264;5.468;2023-01-25T09:53:28;2.10;99.90
13462;DHT22;6803;45.264;5.468;2023-01-25T09:56:03;2.20;99.90
13462;DHT22;6803;45.264;5.468;2023-01-25T09:58:37;2.10;99.90
13462;DHT22;6803;45.264;5.468;2023-01-25T10:01:21;2.10;99.90
13462;DHT22;6803;45.264;5.468;2023-01-25T10:03:57;2.20;99.90
13462;DHT22;6803;45.264;5.468;2023-01-25T10:06:36;2.20;99.90
13462;DHT22;6803;45.264;5.468;2023-01-25T10:09:20;2.20;99.90
13462;DHT22;6803;45.264;5.468;2023-01-25T10:11:52;2.20;99.90
13462;DHT22;6803;45.264;5.468;2023-01-25T10:14:23;2.20;99.90
13462;DHT22;6803;45.264;5.468;2023-01-25T10:17:03;2.20;99.90
13462;DHT22;6803;45.264;5.468;2023-01-25T10:19:45;2.20;99.90
13462;DHT22;6803;45.264;5.468;2023-01-25T10:22:18;2.20;99.90
13462;DHT22;6803;45.264;5.468;2023-01-25T10:27:55;2.30;99.90
13462;DHT22;6803;45.264;5.468;2023-01-25T10:30:28;2.20;99.90
13462;DHT22;6803;45.264;5.468;2023-01-25T10:33:01;2.20;99.90
13462;DHT22;6803;45.264;5.468;2023-01-25T10:38:16;2.20;99.90
13462;DHT22;6803;45.264;5.468;2023-01-25T10:40:51;2.30;99.90
13462;DHT22;6803;45.264;5.468;2023-01-25T10:43:22;2.40;99.90
13462;DHT22;6803;45.264;5.468;2023-01-25T10:45:53;2.30;99.90
13462;DHT22;6803;45.264;5.468;2023-01-25T10:48:26;2.30;99.90
13462;DHT22;6803;45.264;5.468;2023-01-25T10:50:59;2.30;99.90
13462;DHT22;6803;45.264;5.468;2023-01-25T10:53:32;2.30;99.90
13462;DHT22;6803;45.264;5.468;2023-01-25T10:56:18;2.30;99.90
13462;DHT22;6803;45.264;5.468;2023-01-25T10:58:51;2.40;99.90
13462;DHT22;6803;45.264;5.468;2023-01-25T11:01:28;2.40;99.90
13462;DHT22;6803;45.264;5.468;2023-01-25T11:04:00;2.40;99.90
13462;DHT22;6803;45.264;5.468;2023-01-25T11:06:34;2.40;99.90
13462;DHT22;6803;45.264;5.468;2023-01-25T11:09:29;2.50;99.90
13462;DHT22;6803;45.264;5.468;2023-01-25T11:12:02;2.50;99.90
13462;DHT22;6803;45.264;5.468;2023-01-25T11:14:34;2.60;99.90
13462;DHT22;6803;45.264;5.468;2023-01-25T11:17:16;2.70;99.90
13462;DHT22;6803;45.264;5.468;2023-01-25T11:19:40;2.70;99.90
13462;DHT22;6803;45.264;5.468;2023-01-25T11:22:22;2.70;99.90
13462;DHT22;6803;45.264;5.468;2023-01-25T11:24:53;2.70;99.90
13462;DHT22;6803;45.264;5.468;2023-01-25T11:27:25;2.70;99.90
13462;DHT22;6803;45.264;5.468;2023-01-25T11:30:14;2.70;99.90
13462;DHT22;6803;45.264;5.468;2023-01-25T11:32:47;2.60;99.90
13462;DHT22;6803;45.264;5.468;2023-01-25T11:38:06;2.70;99.90
13462;DHT22;6803;45.264;5.468;2023-01-25T11:40:40;2.70;99.90
13462;DHT22;6803;45.264;5.468;2023-01-25T11:43:20;2.70;99.90
13462;DHT22;6803;45.264;5.468;2023-01-25T11:48:49;2.70;99.90
13462;DHT22;6803;45.264;5.468;2023-01-25T11:51:24;2.70;99.90
13462;DHT22;6803;45.264;5.468;2023-01-25T11:56:55;2.70;99.90
13462;DHT22;6803;45.264;5.468;2023-01-25T11:59:37;2.80;99.90
13462;DHT22;6803;45.264;5.468;2023-01-25T12:02:18;2.80;99.90
13462;DHT22;6803;45.264;5.468;2023-01-25T12:05:01;2.70;99.90
13462;DHT22;6803;45.264;5.468;2023-01-25T12:07:38;2.80;99.90
13462;DHT22;6803;45.264;5.468;2023-01-25T12:10:21;2.80;99.90
13462;DHT22;6803;45.264;5.468;2023-01-25T12:12:56;2.80;99.90
13462;DHT22;6803;45.264;5.468;2023-01-25T12:15:36;2.70;99.90
13462;DHT22;6803;45.264;5.468;2023-01-25T12:18:26;2.80;99.90
13462;DHT22;6803;45.264;5.468;2023-01-25T12:21:04;2.80;99.90
13462;DHT22;6803;45.264;5.468;2023-01-25T12:23:42;2.70;99.90
13462;DHT22;6803;45.264;5.468;2023-01-25T12:26:18;2.70;99.90
13462;DHT22;6803;45.264;5.468;2023-01-25T12:28:53;2.70;99.90
13462;DHT22;6803;45.264;5.468;2023-01-25T12:31:25;2.70;99.90
13462;DHT22;6803;45.264;5.468;2023-01-25T12:33:59;2.70;99.90
13462;DHT22;6803;45.264;5.468;2023-01-25T12:36:34;2.70;99.90
13462;DHT22;6803;45.264;5.468;2023-01-25T12:39:09;2.90;99.90
13462;DHT22;6803;45.264;5.468;2023-01-25T12:41:43;2.90;99.90
13462;DHT22;6803;45.264;5.468;2023-01-25T12:47:00;2.80;99.90
13462;DHT22;6803;45.264;5.468;2023-01-25T12:49:33;2.80;99.90
13462;DHT22;6803;45.264;5.468;2023-01-25T12:52:19;2.80;99.90
13462;DHT22;6803;45.264;5.468;2023-01-25T12:54:42;2.80;99.90
13462;DHT22;6803;45.264;5.468;2023-01-25T12:57:16;2.80;99.90
13462;DHT22;6803;45.264;5.468;2023-01-25T12:59:53;2.70;99.90
13462;DHT22;6803;45.264;5.468;2023-01-25T13:02:42;2.70;99.90
13462;DHT22;6803;45.264;5.468;2023-01-25T13:05:26;2.70;99.90
13462;DHT22;6803;45.264;5.468;2023-01-25T13:08:02;2.80;99.90
13462;DHT22;6803;45.264;5.468;2023-01-25T13:10:38;2.80;99.90
13462;DHT22;6803;45.264;5.468;2023-01-25T13:13:20;2.80;99.90
13462;DHT22;6803;45.264;5.468;2023-01-25T13:15:53;2.80;99.90
13462;DHT22;6803;45.264;5.468;2023-01-25T13:21:41;2.80;99.90
13462;DHT22;6803;45.264;5.468;2023-01-25T13:24:24;2.80;99.90
13462;DHT22;6803;45.264;5.468;2023-01-25T13:27:03;2.80;99.90
13462;DHT22;6803;45.264;5.468;2023-01-25T13:33:02;2.90;99.90
13462;DHT22;6803;45.264;5.468;2023-01-25T13:35:42;2.70;99.90
13462;DHT22;6803;45.264;5.468;2023-01-25T13:38:34;2.70;99.90
13462;DHT22;6803;45.264;5.468;2023-01-25T13:41:15;2.70;99.90
13462;DHT22;6803;45.264;5.468;2023-01-25T13:46:32;2.60;99.90
13462;DHT22;6803;45.264;5.468;2023-01-25T13:51:45;2.60;99.90
13462;DHT22;6803;45.264;5.468;2023-01-25T13:54:17;2.60;99.90
13462;DHT22;6803;45.264;5.468;2023-01-25T13:56:47;2.60;99.90
13462;DHT22;6803;45.264;5.468;2023-01-25T13:59:27;2.60;99.90
13462;DHT22;6803;45.264;5.468;2023-01-25T14:01:59;2.60;99.90
13462;DHT22;6803;45.264;5.468;2023-01-25T14:04:32;2.70;99.90
13462;DHT22;6803;45.264;5.468;2023-01-25T14:07:03;2.70;99.90
13462;DHT22;6803;45.264;5.468;2023-01-25T14:09:37;2.60;99.90
13462;DHT22;6803;45.264;5.468;2023-01-25T14:12:10;2.60;99.90
13462;DHT22;6803;45.264;5.468;2023-01-25T14:14:41;2.60;99.90
13462;DHT22;6803;45.264;5.468;2023-01-25T14:17:17;2.60;99.90
13462;DHT22;6803;45.264;5.468;2023-01-25T14:19:51;2.60;99.90
13462;DHT22;6803;45.264;5.468;2023-01-25T14:22:24;2.60;99.90
13462;DHT22;6803;45.264;5.468;2023-01-25T14:25:05;2.70;99.90
13462;DHT22;6803;45.264;5.468;2023-01-25T14:27:41;2.70;99.90
13462;DHT22;6803;45.264;5.468;2023-01-25T14:30:23;2.60;99.90
13462;DHT22;6803;45.264;5.468;2023-01-25T14:32:57;2.60;99.90
13462;DHT22;6803;45.264;5.468;2023-01-25T14:35:37;2.60;99.90
13462;DHT22;6803;45.264;5.468;2023-01-25T14:38:25;2.60;99.90
13462;DHT22;6803;45.264;5.468;2023-01-25T14:40:59;2.60;99.90
13462;DHT22;6803;45.264;5.468;2023-01-25T14:43:31;2.60;99.90
13462;DHT22;6803;45.264;5.468;2023-01-25T14:46:17;2.60;99.90
13462;DHT22;6803;45.264;5.468;2023-01-25T14:48:48;2.50;99.90
13462;DHT22;6803;45.264;5.468;2023-01-25T14:51:25;2.60;99.90
13462;DHT22;6803;45.264;5.468;2023-01-25T14:53:59;2.60;99.90
13462;DHT22;6803;45.264;5.468;2023-01-25T14:56:36;2.60;99.90
13462;DHT22;6803;45.264;5.468;2023-01-25T14:59:14;2.60;99.90
13462;DHT22;6803;45.264;5.468;2023-01-25T15:01:47;2.60;99.90
13462;DHT22;6803;45.264;5.468;2023-01-25T15:04:19;2.60;99.90
13462;DHT22;6803;45.264;5.468;2023-01-25T15:06:51;2.60;99.90
13462;DHT22;6803;45.264;5.468;2023-01-25T15:09:33;2.60;99.90
13462;DHT22;6803;45.264;5.468;2023-01-25T15:12:21;2.60;99.90
13462;DHT22;6803;45.264;5.468;2023-01-25T15:14:55;2.60;99.90
13462;DHT22;6803;45.264;5.468;2023-01-25T15:17:43;2.60;99.90
13462;DHT22;6803;45.264;5.468;2023-01-25T15:20:29;2.60;99.90
13462;DHT22;6803;45.264;5.468;2023-01-25T15:23:08;2.60;99.90
13462;DHT22;6803;45.264;5.468;2023-01-25T15:25:47;2.60;99.90
13462;DHT22;6803;45.264;5.468;2023-01-25T15:28:18;2.60;99.90
13462;DHT22;6803;45.264;5.468;2023-01-25T15:30:49;2.70;99.90
13462;DHT22;6803;45.264;5.468;2023-01-25T15:33:22;2.60;99.90
13462;DHT22;6803;45.264;5.468;2023-01-25T15:35:54;2.60;99.90
13462;DHT22;6803;45.264;5.468;2023-01-25T15:38:25;2.50;99.90
13462;DHT22;6803;45.264;5.468;2023-01-25T15:40:55;2.60;99.90
13462;DHT22;6803;45.264;5.468;2023-01-25T15:43:28;2.60;99.90
13462;DHT22;6803;45.264;5.468;2023-01-25T15:46:00;2.60;99.90
13462;DHT22;6803;45.264;5.468;2023-01-25T15:48:33;2.50;99.90
13462;DHT22;6803;45.264;5.468;2023-01-25T15:51:05;2.60;99.90
13462;DHT22;6803;45.264;5.468;2023-01-25T15:53:36;2.50;99.90
13462;DHT22;6803;45.264;5.468;2023-01-25T15:56:11;2.50;99.90
13462;DHT22;6803;45.264;5.468;2023-01-25T15:58:44;2.50;99.90
13462;DHT22;6803;45.264;5.468;2023-01-25T16:01:16;2.40;99.90
13462;DHT22;6803;45.264;5.468;2023-01-25T16:03:48;2.40;99.90
13462;DHT22;6803;45.264;5.468;2023-01-25T16:09:25;2.50;99.90
13462;DHT22;6803;45.264;5.468;2023-01-25T16:11:59;2.40;99.90
13462;DHT22;6803;45.264;5.468;2023-01-25T16:14:30;2.50;99.90
13462;DHT22;6803;45.264;5.468;2023-01-25T16:17:02;2.40;99.90
13462;DHT22;6803;45.264;5.468;2023-01-25T16:19:34;2.40;99.90
13462;DHT22;6803;45.264;5.468;2023-01-25T16:22:05;2.40;99.90
13462;DHT22;6803;45.264;5.468;2023-01-25T16:24:36;2.40;99.90
13462;DHT22;6803;45.264;5.468;2023-01-25T16:27:13;2.30;99.90
13462;DHT22;6803;45.264;5.468;2023-01-25T16:29:47;2.40;99.90
13462;DHT22;6803;45.264;5.468;2023-01-25T16:32:18;2.30;99.90
13462;DHT22;6803;45.264;5.468;2023-01-25T16:34:49;2.40;99.90
13462;DHT22;6803;45.264;5.468;2023-01-25T16:37:22;2.30;99.90
13462;DHT22;6803;45.264;5.468;2023-01-25T16:39:52;2.30;99.90
13462;DHT22;6803;45.264;5.468;2023-01-25T16:42:23;2.30;99.90
13462;DHT22;6803;45.264;5.468;2023-01-25T16:44:54;2.30;99.90
13462;DHT22;6803;45.264;5.468;2023-01-25T16:47:25;2.30;99.90
13462;DHT22;6803;45.264;5.468;2023-01-25T16:49:56;2.30;99.90
13462;DHT22;6803;45.264;5.468;2023-01-25T16:52:26;2.20;99.90
13462;DHT22;6803;45.264;5.468;2023-01-25T16:54:58;2.20;99.90
13462;DHT22;6803;45.264;5.468;2023-01-25T16:57:28;2.20;99.90
13462;DHT22;6803;45.264;5.468;2023-01-25T16:59:59;2.20;99.90
13462;DHT22;6803;45.264;5.468;2023-01-25T17:02:31;2.20;99.90
13462;DHT22;6803;45.264;5.468;2023-01-25T17:05:02;2.20;99.90
13462;DHT22;6803;45.264;5.468;2023-01-25T17:07:33;2.20;99.90
13462;DHT22;6803;45.264;5.468;2023-01-25T17:10:06;2.10;99.90
13462;DHT22;6803;45.264;5.468;2023-01-25T17:12:37;2.20;99.90
13462;DHT22;6803;45.264;5.468;2023-01-25T17:15:09;2.10;99.90
13462;DHT22;6803;45.264;5.468;2023-01-25T17:17:40;2.10;99.90